Terminal Aerodrome Forecast
Issued by NWS Wilmington, OH

Current Version | Previous Version | Text Only | Print | Product List | Glossary Off
Versions: 1 2 3 4 5 6 7 8 9 10 11 12 13 14 15 16 17 18 19 20 21 22 23 24 25 26 27 28 29

000
FTUS41 KILN 201500 AAA
TAFCMH
TAF AMD
KCMH 201501Z 2015/2112 21010KT P6SM BKN080
     FM201700 22012G18KT P6SM VCSH OVC040
      TEMPO 2021/2101 -SHRA
     FM210300 27007KT P6SM SCT012
     FM210500 27007KT 5SM BR OVC008=

USA.gov is the U.S. government's official web portal to all federal, state and local government web resources and services.